Time;durP1;ratioP1;P1;durP2;ratioP2;P2;SDS_P1;SDS_P2;PMS_P1;PMS_P2;Temp;Humidity;BMP_temperature;BMP_pressure;BME280_temperature;BME280_humidity;BME280_pressure;Samples;Min_cycle;Max_cycle;Signal;HPM_P1;HPM_P2
2022/11/15 00:01:38;;;;;;;0.43;0.40;;;;;;;21.34;41.18;102802.22;4214315;28;20040;-71
2022/11/15 00:03:40;;;;;;;0.35;0.35;;;;;;;21.33;41.26;102794.09;4214044;28;20505;-72
2022/11/15 00:05:44;;;;;;;1.23;0.43;;;;;;;21.34;41.17;102801.38;4213890;28;20487;-71
2022/11/15 00:07:54;;;;;;;0.70;0.50;;;;;;;21.33;41.03;102802.47;4213331;28;20438;-71
2022/11/15 00:09:56;;;;;;;2.00;0.50;;;;;;;21.34;41.37;102799.41;4214505;28;20097;-71
2022/11/15 00:11:57;;;;;;;0.40;0.30;;;;;;;21.34;41.00;102801.38;4214374;28;20033;-71
2022/11/15 00:14:01;;;;;;;0.50;0.50;;;;;;;21.24;41.19;102788.84;4214523;28;20125;-72
2022/11/15 00:16:03;;;;;;;1.20;0.45;;;;;;;21.31;41.08;102789.63;4214074;28;20032;-69
2022/11/15 00:18:06;;;;;;;0.73;0.50;;;;;;;21.33;41.10;102791.31;4214161;28;20040;-72
2022/11/15 00:20:17;;;;;;;0.70;0.40;;;;;;;21.16;41.11;102772.47;4214181;28;20426;-72
2022/11/15 00:22:21;;;;;;;0.70;0.68;;;;;;;21.12;41.01;102762.94;4214131;28;20093;-71
2022/11/15 00:24:23;;;;;;;0.60;0.50;;;;;;;21.33;41.15;102785.75;4213070;28;20161;-72
2022/11/15 00:26:33;;;;;;;0.60;0.50;;;;;;;21.22;41.33;102774.31;4213919;28;20062;-72
2022/11/15 00:28:34;;;;;;;0.73;0.50;;;;;;;21.31;41.25;102789.63;4214074;28;20081;-71
2022/11/15 00:30:35;;;;;;;1.08;0.60;;;;;;;21.31;41.32;102799.91;4214329;28;20101;-72
2022/11/15 00:32:40;;;;;;;0.55;0.47;;;;;;;21.30;41.38;102792.59;4214402;28;20105;-72
2022/11/15 00:34:49;;;;;;;0.40;0.37;;;;;;;21.21;41.18;102777.31;4214189;28;20097;-72
2022/11/15 00:36:50;;;;;;;0.57;0.40;;;;;;;21.10;41.50;102761.47;4213892;28;20036;-71
2022/11/15 00:38:52;;;;;;;0.60;0.50;;;;;;;21.20;41.53;102778.41;4214142;28;20394;-71
2022/11/15 00:40:53;;;;;;;1.52;0.47;;;;;;;21.28;41.52;102806.78;4214393;28;20044;-71
2022/11/15 00:42:57;;;;;;;0.90;0.45;;;;;;;21.28;41.29;102801.19;4213955;28;20040;-70
2022/11/15 00:44:58;;;;;;;0.90;0.70;;;;;;;21.28;41.13;102803.97;4214593;28;20117;-69
2022/11/15 00:46:59;;;;;;;0.68;0.65;;;;;;;21.28;41.40;102812.34;4213753;28;20048;-72
2022/11/15 00:49:01;;;;;;;0.40;0.40;;;;;;;21.29;41.17;102827.09;4213862;28;20048;-70
2022/11/15 00:51:02;;;;;;;0.82;0.60;;;;;;;20.68;41.35;102728.91;4213725;28;20073;-72
2022/11/15 00:53:06;;;;;;;0.73;0.50;;;;;;;21.24;41.38;102826.97;4214089;28;20456;-71
2022/11/15 00:55:14;;;;;;;0.52;0.52;;;;;;;21.26;41.45;102831.22;4213453;28;20044;-71
2022/11/15 00:57:15;;;;;;;0.85;0.80;;;;;;;21.28;41.28;102839.34;4213184;28;20052;-71
2022/11/15 00:59:17;;;;;;;0.50;0.40;;;;;;;21.27;41.50;102835.72;4215094;28;20437;-71
2022/11/15 01:01:18;;;;;;;0.47;0.38;;;;;;;21.27;41.33;102830.13;4217008;28;20528;-71
2022/11/15 01:03:19;;;;;;;0.50;0.50;;;;;;;21.27;41.41;102838.50;4216906;28;20101;-70
2022/11/15 01:05:20;;;;;;;1.33;0.52;;;;;;;21.26;41.57;102842.38;4217044;28;20089;-70
2022/11/15 01:07:22;;;;;;;1.13;0.52;;;;;;;21.12;41.26;102812.16;4216648;28;20028;-70
2022/11/15 01:09:26;;;;;;;0.77;0.57;;;;;;;21.22;41.37;102841.16;4216833;28;20086;-70
2022/11/15 01:11:27;;;;;;;1.15;0.82;;;;;;;21.19;41.11;102838.81;4216892;28;20455;-70
2022/11/15 01:13:36;;;;;;;1.00;0.50;;;;;;;21.17;41.25;102832.66;4216812;28;20039;-70
2022/11/15 01:15:41;;;;;;;0.80;0.80;;;;;;;21.20;41.40;102834.94;4216759;28;20036;-70
2022/11/15 01:17:42;;;;;;;1.60;0.50;;;;;;;21.19;41.46;102836.03;4216668;28;20040;-71
2022/11/15 01:19:43;;;;;;;0.70;0.40;;;;;;;21.08;41.29;102814.59;4216500;28;20475;-71
2022/11/15 01:21:45;;;;;;;0.68;0.60;;;;;;;21.15;41.29;102837.59;4216451;28;20040;-71
2022/11/15 01:23:46;;;;;;;0.50;0.50;;;;;;;21.23;41.40;102842.84;4216135;28;20097;-71
2022/11/15 01:25:47;;;;;;;0.60;0.60;;;;;;;20.42;41.33;102718.13;4216434;28;20512;-70
2022/11/15 01:27:49;;;;;;;1.10;0.40;;;;;;;21.24;41.30;102865.97;4216264;28;20036;-71
2022/11/15 01:29:50;;;;;;;0.55;0.45;;;;;;;21.15;41.25;102851.50;4216768;28;20044;-70
2022/11/15 01:31:53;;;;;;;0.65;0.57;;;;;;;21.22;41.32;102874.56;4216583;28;20083;-71
2022/11/15 01:33:55;;;;;;;0.65;0.50;;;;;;;21.21;41.33;102867.28;4216491;28;20089;-71
2022/11/15 01:35:56;;;;;;;0.55;0.50;;;;;;;21.06;41.40;102851.00;4216332;28;20040;-71
2022/11/15 01:37:57;;;;;;;1.13;0.70;;;;;;;20.62;41.14;102777.16;4216303;28;20032;-71
2022/11/15 01:39:59;;;;;;;0.50;0.50;;;;;;;21.22;41.24;102879.28;4216673;28;20074;-71
2022/11/15 01:42:00;;;;;;;0.50;0.50;;;;;;;21.00;41.03;102842.75;4216410;28;20028;-71
2022/11/15 01:44:35;;;;;;;1.13;0.50;;;;;;;21.18;41.30;102880.84;4214724;28;20040;-71
2022/11/15 01:46:38;;;;;;;1.20;0.80;;;;;;;21.21;40.88;102877.56;4216206;28;20372;-71
2022/11/15 01:48:39;;;;;;;0.90;0.60;;;;;;;21.13;40.68;102881.53;4216214;28;20097;-71
2022/11/15 01:50:40;;;;;;;0.90;0.60;;;;;;;21.19;40.87;102891.72;4216582;28;20040;-71
2022/11/15 01:52:42;;;;;;;1.23;0.50;;;;;;;21.05;40.89;102868.78;4216436;28;20093;-71
2022/11/15 01:54:47;;;;;;;1.95;0.73;;;;;;;21.10;41.04;102882.00;4216141;28;20024;-71
2022/11/15 01:57:04;;;;;;;1.10;0.80;;;;;;;21.17;41.04;102905.03;4215907;28;20036;-71
2022/11/15 01:59:08;;;;;;;0.55;0.47;;;;;;;20.88;40.98;102850.19;4216029;28;20036;-71
2022/11/15 02:01:17;;;;;;;0.97;0.60;;;;;;;21.19;41.13;102897.28;4212233;28;20110;-73
2022/11/15 02:03:21;;;;;;;0.95;0.80;;;;;;;21.17;41.05;102902.25;4214248;28;20471;-68
2022/11/15 02:05:23;;;;;;;0.63;0.57;;;;;;;21.21;40.76;102900.72;4213804;28;20101;-69
2022/11/15 02:07:25;;;;;;;1.15;0.68;;;;;;;21.21;41.12;102906.28;4215660;28;20048;-68
2022/11/15 02:09:29;;;;;;;0.63;0.63;;;;;;;21.00;40.98;102884.50;4215532;28;20040;-68
2022/11/15 02:11:31;;;;;;;1.02;0.85;;;;;;;21.23;40.93;102917.16;4214820;28;20127;-69
2022/11/15 02:13:32;;;;;;;0.80;0.70;;;;;;;21.20;40.65;102920.41;4214591;28;20035;-75
2022/11/15 02:15:44;;;;;;;1.08;0.80;;;;;;;21.21;40.57;102922.97;4211393;28;20043;-75
2022/11/15 02:17:58;;;;;;;2.30;0.77;;;;;;;21.09;40.69;102910.94;4213573;28;20040;-76
2022/11/15 02:20:27;;;;;;;0.98;0.75;;;;;;;21.24;40.76;102936.41;4213548;28;20101;-75
2022/11/15 02:23:06;;;;;;;2.03;0.93;;;;;;;21.25;40.99;102938.09;4214258;28;20044;-75
2022/11/15 02:25:22;;;;;;;1.98;0.90;;;;;;;21.29;40.97;102942.13;4211814;28;20052;-77
2022/11/15 02:27:55;;;;;;;1.27;0.70;;;;;;;21.27;40.93;102947.09;4215422;28;20044;-75
2022/11/15 02:30:27;;;;;;;1.48;1.38;;;;;;;21.28;40.94;102948.78;4200407;28;20089;-73
2022/11/15 02:32:48;;;;;;;1.30;0.70;;;;;;;21.29;40.96;102942.13;4210035;28;20086;-77
2022/11/15 02:35:06;;;;;;;1.17;0.63;;;;;;;21.22;40.94;102924.69;4211308;28;20089;-75
2022/11/15 02:37:51;;;;;;;1.05;0.70;;;;;;;21.30;40.96;102938.28;4206299;28;20048;-75
2022/11/15 02:40:04;;;;;;;3.63;0.70;;;;;;;21.32;40.78;102940.84;4200397;28;20433;-78
2022/11/15 02:44:45;;;;;;;3.25;0.82;;;;;;;21.34;40.93;102944.22;4217587;28;20093;-77
2022/11/15 02:47:14;;;;;;;1.67;0.75;;;;;;;21.35;41.33;102939.50;4214086;28;20039;-75
2022/11/15 02:49:16;;;;;;;5.30;1.10;;;;;;;21.08;41.01;102895.31;4206081;28;20528;-75
2022/11/15 02:51:18;;;;;;;3.90;1.00;;;;;;;21.36;40.88;102947.66;4213734;28;20129;-73
2022/11/15 02:53:27;;;;;;;2.80;1.02;;;;;;;21.26;41.09;102931.47;4213646;28;20109;-78
2022/11/15 02:55:38;;;;;;;4.47;1.52;;;;;;;21.37;41.06;102946.56;4211319;28;20032;-77
2022/11/15 02:57:52;;;;;;;3.55;1.33;;;;;;;21.38;41.58;102939.91;4212908;28;20533;-79
2022/11/15 03:00:03;;;;;;;4.43;1.48;;;;;;;21.39;41.40;102949.94;4209242;28;20047;-78
2022/11/15 03:02:16;;;;;;;4.38;1.45;;;;;;;21.37;41.70;102938.19;4216466;28;20032;-78
2022/11/15 03:04:38;;;;;;;10.60;1.80;;;;;;;21.40;41.64;102950.81;4210614;28;20043;-78
2022/11/15 03:06:52;;;;;;;7.13;1.73;;;;;;;21.35;41.66;102933.94;4205127;28;20588;-72
2022/11/15 03:09:27;;;;;;;7.65;2.15;;;;;;;21.40;41.94;102942.47;4209499;28;20089;-73
2022/11/15 03:11:33;;;;;;;7.75;2.53;;;;;;;21.45;41.70;102949.03;4211533;28;20168;-74
2022/11/15 03:13:44;;;;;;;6.72;2.90;;;;;;;21.40;41.57;102943.31;4209889;28;20041;-75
2022/11/15 03:15:54;;;;;;;8.40;3.03;;;;;;;21.45;41.80;102948.16;4216676;27;20044;-74
2022/11/15 03:18:24;;;;;;;6.18;2.83;;;;;;;21.39;41.90;102946.31;4207155;28;20035;-73
2022/11/15 03:20:27;;;;;;;5.85;2.60;;;;;;;21.46;41.97;102955.44;4215322;28;20032;-73
2022/11/15 03:22:35;;;;;;;8.20;2.60;;;;;;;21.47;42.17;102971.91;4214036;28;20089;-74
2022/11/15 03:24:38;;;;;;;7.43;2.88;;;;;;;21.46;42.07;102959.06;4207692;28;20040;-77
2022/11/15 03:26:45;;;;;;;8.73;3.30;;;;;;;21.48;42.31;102972.75;4213293;28;20024;-76
2022/11/15 03:28:59;;;;;;;9.32;3.13;;;;;;;21.48;42.60;102967.19;4214633;28;20036;-76
2022/11/15 03:31:46;;;;;;;8.38;2.80;;;;;;;21.49;42.58;102963.31;4209181;28;20541;-76
2022/11/15 03:33:24;;;;;;;7.75;3.10;;;;;;;21.52;42.51;102968.41;4213617;28;20036;-75
2022/11/15 03:35:33;;;;;;;7.78;2.60;;;;;;;21.51;42.70;102969.50;4201900;28;20036;-78
2022/11/15 03:37:40;;;;;;;8.18;2.80;;;;;;;21.17;42.94;102921.75;4204681;28;20430;-78
2022/11/15 03:39:42;;;;;;;8.38;3.22;;;;;;;21.54;43.01;102977.41;4214217;28;20085;-79
2022/11/15 03:41:48;;;;;;;8.25;3.03;;;;;;;21.53;42.97;102973.75;4209357;28;20449;-78
2022/11/15 03:44:08;;;;;;;8.98;3.00;;;;;;;21.52;43.05;102968.41;4210372;28;20065;-78
2022/11/15 03:46:48;;;;;;;7.80;2.67;;;;;;;21.53;42.97;102981.25;4212407;28;20102;-78
2022/11/15 03:48:54;;;;;;;11.57;2.50;;;;;;;21.59;43.06;102983.09;4208606;28;20040;-78
2022/11/15 03:50:58;;;;;;;6.47;2.65;;;;;;;21.61;42.98;102983.69;4214286;28;20048;-78
2022/11/15 03:53:00;;;;;;;5.78;2.60;;;;;;;21.62;43.01;102984.56;4213419;28;20373;-77
2022/11/15 03:55:03;;;;;;;6.63;2.70;;;;;;;21.62;42.97;102990.97;4214332;28;20579;-78
2022/11/15 03:57:05;;;;;;;11.05;2.70;;;;;;;21.62;43.05;102996.53;4214495;28;20097;-78
2022/11/15 03:59:06;;;;;;;5.75;2.55;;;;;;;21.53;42.85;102981.25;4212509;28;20117;-78
2022/11/15 04:01:07;;;;;;;11.55;2.65;;;;;;;21.64;43.08;102999.97;4213886;28;20044;-77
2022/11/15 04:03:09;;;;;;;7.70;2.30;;;;;;;21.65;42.80;102984.94;4212426;28;20032;-77
2022/11/15 04:05:11;;;;;;;8.05;2.75;;;;;;;21.65;42.96;102990.50;4214191;28;20449;-77
2022/11/15 04:07:12;;;;;;;5.57;2.10;;;;;;;21.67;42.92;102993.03;4214053;28;20085;-78
2022/11/15 04:09:13;;;;;;;8.88;2.05;;;;;;;21.65;43.02;102990.50;4212361;28;20444;-78
2022/11/15 04:11:15;;;;;;;5.95;2.75;;;;;;;21.57;42.85;102971.34;4214049;28;20073;-78
2022/11/15 04:13:16;;;;;;;6.78;2.40;;;;;;;21.66;42.88;102994.13;4211773;28;20102;-78
2022/11/15 04:15:20;;;;;;;7.45;2.45;;;;;;;21.65;42.66;102984.09;4214185;28;20086;-78
2022/11/15 04:17:24;;;;;;;5.97;2.33;;;;;;;21.52;43.04;102965.63;4212982;28;20467;-79
2022/11/15 04:26:11;;;;;;;4.82;1.95;;;;;;;21.57;42.94;102960.19;4213830;28;20028;-70
2022/11/15 04:28:12;;;;;;;10.57;2.05;;;;;;;21.69;42.75;102975.03;4212380;28;20082;-71
2022/11/15 04:30:16;;;;;;;10.05;2.60;;;;;;;21.39;43.14;102932.38;4211547;28;20020;-70
2022/11/15 04:32:26;;;;;;;5.32;2.17;;;;;;;21.70;42.79;102987.84;4211944;28;20459;-69
2022/11/15 04:34:27;;;;;;;6.90;2.13;;;;;;;21.71;42.93;102989.56;4214899;28;20082;-69
2022/11/15 04:38:48;;;;;;;4.85;1.80;;;;;;;21.58;42.69;102959.13;4218174;28;20101;-69
2022/11/15 04:40:49;;;;;;;12.25;1.77;;;;;;;21.62;42.70;102962.25;4216065;28;20369;-70
2022/11/15 04:42:50;;;;;;;6.55;2.05;;;;;;;21.69;42.70;102980.59;4209375;28;20040;-69
2022/11/15 04:44:52;;;;;;;7.65;2.13;;;;;;;21.52;42.70;102957.25;4215034;28;20101;-69
2022/11/15 04:46:56;;;;;;;7.00;2.30;;;;;;;21.59;42.66;102966.38;4210405;28;20471;-70
2022/11/15 04:48:57;;;;;;;5.82;1.92;;;;;;;21.65;42.42;102984.94;4206180;28;20086;-71
2022/11/15 04:50:59;;;;;;;4.88;2.08;;;;;;;21.62;42.49;102985.41;4217092;28;20040;-71
2022/11/15 04:53:00;;;;;;;6.88;1.85;;;;;;;21.66;42.43;102992.19;4217010;28;20105;-71
2022/11/15 04:55:04;;;;;;;6.03;2.13;;;;;;;21.65;42.32;102996.09;4217189;28;20028;-71
2022/11/15 04:57:05;;;;;;;6.47;1.90;;;;;;;21.65;42.49;102989.66;4216681;28;20438;-71
2022/11/15 04:59:09;;;;;;;8.88;2.30;;;;;;;21.57;42.28;102976.91;4216983;28;20666;-71
2022/11/15 05:01:15;;;;;;;4.50;1.85;;;;;;;21.63;42.04;102984.34;4216057;28;20032;-70
2022/11/15 05:05:36;;;;;;;5.70;1.73;;;;;;;21.61;41.99;102978.13;4217202;28;20062;-71
2022/11/15 05:07:40;;;;;;;10.15;1.92;;;;;;;21.59;42.14;102971.97;4217412;28;20445;-71
2022/11/15 05:09:42;;;;;;;7.32;2.20;;;;;;;21.23;41.93;102911.59;4216893;28;20382;-70
2022/11/15 05:11:43;;;;;;;4.82;1.90;;;;;;;21.45;42.36;102950.97;4216710;28;20036;-71
2022/11/15 05:13:45;;;;;;;4.38;1.80;;;;;;;21.58;42.08;102967.47;4208757;28;20040;-71
2022/11/15 05:15:47;;;;;;;2.97;1.70;;;;;;;21.58;42.24;102964.69;4216354;28;20552;-71
2022/11/15 05:17:57;;;;;;;5.93;2.10;;;;;;;21.42;42.10;102937.50;4216640;28;20028;-71
2022/11/15 05:20:02;;;;;;;4.15;1.75;;;;;;;21.59;42.37;102958.03;4202143;28;20373;-71
2022/11/15 05:22:03;;;;;;;3.83;1.75;;;;;;;21.57;42.22;102944.31;4200071;28;20094;-71
2022/11/15 05:24:05;;;;;;;4.47;1.92;;;;;;;21.41;42.27;102916.31;4203539;28;20040;-71
2022/11/15 05:26:09;;;;;;;4.45;1.77;;;;;;;21.63;42.28;102950.91;4215451;28;20109;-71
2022/11/15 05:28:11;;;;;;;5.93;1.83;;;;;;;21.65;42.15;102951.50;4205227;28;20053;-71
2022/11/15 05:30:12;;;;;;;4.90;1.92;;;;;;;21.65;42.26;102945.94;4212312;28;20062;-71
2022/11/15 05:32:13;;;;;;;4.60;1.65;;;;;;;21.48;42.11;102922.59;4215458;28;20097;-71
2022/11/15 05:34:25;;;;;;;3.05;1.80;;;;;;;21.69;42.26;102963.03;4216355;28;20032;-71
2022/11/15 05:36:44;;;;;;;3.60;1.50;;;;;;;21.64;42.27;102960.94;4215638;28;20044;-71
2022/11/15 05:38:50;;;;;;;4.78;1.58;;;;;;;21.70;42.25;102965.56;4216461;28;20067;-71
2022/11/15 05:40:54;;;;;;;7.85;2.03;;;;;;;21.72;41.98;102973.72;4216373;28;20097;-70
2022/11/15 05:43:00;;;;;;;5.03;1.48;;;;;;;21.63;42.13;102950.06;4214386;28;20098;-70
2022/11/15 05:45:08;;;;;;;3.22;1.52;;;;;;;21.73;42.06;102970.69;4216103;28;20445;-71
2022/11/15 05:47:15;;;;;;;6.13;1.70;;;;;;;21.65;42.16;102948.72;4216011;28;20036;-71
2022/11/15 05:49:24;;;;;;;3.67;1.08;;;;;;;21.73;42.15;102976.25;4216249;28;20090;-71
2022/11/15 05:51:29;;;;;;;4.32;1.65;;;;;;;21.73;42.16;102959.53;4216380;28;20032;-71
2022/11/15 05:53:31;;;;;;;;;;;;;;;21.73;42.20;102951.16;4216649;28;20121;-71
2022/11/15 05:55:35;;;;;;;2.95;1.50;;;;;;;21.71;41.92;102928.25;4214556;28;19924;-71
2022/11/15 05:57:36;;;;;;;6.97;1.77;;;;;;;21.79;41.81;102946.56;4215837;28;20048;-71
2022/11/15 05:59:40;;;;;;;4.45;1.67;;;;;;;21.78;41.91;102940.16;4216051;28;20036;-71
2022/11/15 06:01:42;;;;;;;4.22;1.63;;;;;;;21.78;42.09;102951.31;4216237;28;20582;-71
2022/11/15 06:03:43;;;;;;;3.45;1.60;;;;;;;21.78;42.22;102959.66;4216110;28;20035;-71
2022/11/15 06:05:47;;;;;;;4.30;1.73;;;;;;;21.76;42.09;102959.06;4215407;28;20047;-71
2022/11/15 06:07:48;;;;;;;4.03;1.45;;;;;;;21.76;42.13;102969.34;4214468;28;20421;-71
2022/11/15 06:09:49;;;;;;;1.50;1.30;;;;;;;21.77;41.89;102968.28;4215810;28;20471;-71
2022/11/15 06:11:51;;;;;;;3.60;1.30;;;;;;;21.77;41.96;102966.31;4215073;28;20036;-71
2022/11/15 06:13:52;;;;;;;2.72;1.42;;;;;;;21.76;42.13;102964.63;4215747;28;20040;-71
2022/11/15 06:15:56;;;;;;;3.90;1.67;;;;;;;21.78;41.85;102945.72;4215174;28;20050;-71
2022/11/15 06:18:01;;;;;;;3.70;1.58;;;;;;;21.78;42.16;102953.25;4214405;28;20101;-71
2022/11/15 06:20:03;;;;;;;2.33;1.25;;;;;;;21.76;41.74;102950.69;4213181;28;20040;-71
2022/11/15 06:22:05;;;;;;;3.20;1.17;;;;;;;21.79;41.80;102947.41;4212889;28;20085;-71
2022/11/15 06:24:07;;;;;;;3.67;1.55;;;;;;;21.79;41.81;102955.78;4212041;28;20544;-71
2022/11/15 06:26:08;;;;;;;3.22;1.20;;;;;;;21.80;41.73;102954.69;4214958;28;20433;-71
2022/11/15 06:28:09;;;;;;;3.15;1.50;;;;;;;21.80;41.79;102951.91;4215559;28;20102;-71
2022/11/15 06:30:11;;;;;;;3.70;1.17;;;;;;;21.80;41.78;102949.09;4215460;28;20040;-71
2022/11/15 06:32:15;;;;;;;2.63;1.20;;;;;;;21.70;41.85;102932.13;4215064;28;20109;-71
2022/11/15 06:34:16;;;;;;;4.63;1.30;;;;;;;21.78;41.86;102937.38;4215362;28;20040;-71
2022/11/15 06:36:17;;;;;;;2.58;1.30;;;;;;;21.79;41.51;102941.84;4213584;28;20543;-71
2022/11/15 06:38:19;;;;;;;2.75;1.10;;;;;;;21.78;42.03;102942.94;4215060;28;20482;-71
2022/11/15 06:40:20;;;;;;;2.35;1.55;;;;;;;21.63;41.87;102917.47;4215854;28;20085;-71
2022/11/15 06:42:21;;;;;;;2.53;1.23;;;;;;;21.77;41.60;102943.19;4214435;28;20457;-71
2022/11/15 06:44:25;;;;;;;1.85;1.10;;;;;;;21.76;41.83;102939.56;4215486;28;20540;-71
2022/11/15 06:46:27;;;;;;;1.88;0.90;;;;;;;21.77;41.79;102935.66;4215167;28;20098;-71
2022/11/15 06:48:32;;;;;;;4.18;1.48;;;;;;;21.67;41.85;102934.53;4215212;28;20429;-71
2022/11/15 06:50:36;;;;;;;2.42;1.20;;;;;;;21.73;41.73;102931.66;4214365;28;20101;-71
2022/11/15 06:52:37;;;;;;;2.88;1.15;;;;;;;21.73;41.85;102923.31;4215242;28;20036;-71
2022/11/15 06:54:38;;;;;;;4.28;1.65;;;;;;;21.70;41.90;102920.97;4215045;28;20489;-71
2022/11/15 06:56:42;;;;;;;2.08;1.10;;;;;;;21.69;41.72;102922.06;4214319;28;20089;-72
2022/11/15 06:58:43;;;;;;;2.72;1.20;;;;;;;21.64;42.00;102912.75;4215429;28;20048;-71
2022/11/15 07:00:44;;;;;;;2.53;1.38;;;;;;;21.57;41.61;102904.47;4214916;28;20036;-71
2022/11/15 07:02:46;;;;;;;2.78;0.95;;;;;;;21.68;41.80;102917.59;4215172;28;20028;-71
2022/11/15 07:04:48;;;;;;;1.75;1.20;;;;;;;21.70;41.65;102909.00;4214176;28;20431;-71
2022/11/15 07:06:49;;;;;;;1.10;0.98;;;;;;;21.67;41.69;102913.13;4214865;28;20483;-71
2022/11/15 07:08:50;;;;;;;1.42;1.08;;;;;;;21.66;41.77;102908.59;4215112;28;20028;-71
2022/11/15 07:10:52;;;;;;;1.73;0.93;;;;;;;21.67;41.54;102903.88;4214989;28;20090;-71
2022/11/15 07:12:56;;;;;;;1.30;0.90;;;;;;;21.67;41.39;102896.41;4214650;28;20117;-71
2022/11/15 07:15:00;;;;;;;3.60;1.38;;;;;;;21.65;41.82;102900.50;4213918;28;20032;-71
2022/11/15 07:17:04;;;;;;;2.72;1.13;;;;;;;21.53;41.75;102876.25;4212315;28;20040;-71
2022/11/15 07:19:06;;;;;;;2.20;1.00;;;;;;;21.51;41.61;102872.00;4213485;28;20036;-71
2022/11/15 07:21:10;;;;;;;1.30;0.90;;;;;;;21.57;41.77;102893.31;4215164;28;20089;-71
2022/11/15 07:23:17;;;;;;;2.00;1.17;;;;;;;21.62;41.71;102896.25;4215029;28;20097;-71
2022/11/15 07:25:18;;;;;;;1.70;1.38;;;;;;;21.64;41.60;102905.22;4214834;28;20044;-71
2022/11/15 07:27:20;;;;;;;1.98;1.05;;;;;;;21.63;41.68;102908.25;4210094;28;20085;-71
2022/11/15 07:29:21;;;;;;;3.33;1.10;;;;;;;21.56;41.48;102891.63;4213563;28;20081;-71
2022/11/15 07:31:22;;;;;;;1.42;1.13;;;;;;;21.63;41.51;102914.69;4213756;28;20459;-71
2022/11/15 07:33:26;;;;;;;1.65;1.20;;;;;;;21.54;41.47;102899.41;4213208;28;20036;-71
2022/11/15 07:35:29;;;;;;;2.88;1.35;;;;;;;21.63;41.30;102902.69;4213042;28;20414;-71
2022/11/15 07:37:30;;;;;;;3.00;1.13;;;;;;;21.63;41.37;102903.53;4212932;28;20081;-71
2022/11/15 07:39:32;;;;;;;1.45;0.88;;;;;;;21.48;41.70;102878.03;4214510;28;20047;-71
2022/11/15 07:41:33;;;;;;;1.27;0.82;;;;;;;21.63;41.54;102911.06;4213922;28;20028;-71
2022/11/15 07:43:35;;;;;;;1.83;1.20;;;;;;;21.60;41.42;102920.72;4213451;28;20047;-71
2022/11/15 07:45:42;;;;;;;2.92;1.05;;;;;;;21.42;41.72;102899.34;4213478;28;20429;-71
2022/11/15 07:47:51;;;;;;;1.55;1.20;;;;;;;21.57;41.34;102924.81;4214298;28;20051;-71
2022/11/15 07:49:52;;;;;;;1.30;0.82;;;;;;;21.59;41.83;102934.91;4213176;28;20044;-71
2022/11/15 07:51:56;;;;;;;2.92;1.23;;;;;;;21.58;41.47;102934.06;4213585;28;20044;-71
2022/11/15 07:53:57;;;;;;;2.05;1.17;;;;;;;21.62;41.58;102938.03;4214376;28;20487;-71
2022/11/15 07:55:59;;;;;;;0.93;0.82;;;;;;;21.49;41.62;102913.19;4213181;28;20027;-71
2022/11/15 07:58:02;;;;;;;1.40;0.90;;;;;;;21.58;41.53;102922.91;4212725;28;20047;-71
2022/11/15 08:00:07;;;;;;;1.83;0.88;;;;;;;21.64;41.64;102937.81;4213408;28;20449;-71
2022/11/15 08:02:11;;;;;;;3.00;1.00;;;;;;;21.50;41.77;102910.16;4213211;28;20040;-71
2022/11/15 08:04:13;;;;;;;1.85;1.08;;;;;;;21.68;41.65;102933.47;4214160;28;20093;-71
2022/11/15 08:06:14;;;;;;;1.27;1.00;;;;;;;21.69;41.45;102944.38;4213114;28;20040;-70
2022/11/15 08:08:15;;;;;;;1.58;1.08;;;;;;;21.70;41.79;102948.84;4212213;28;20040;-71
2022/11/15 08:10:18;;;;;;;0.98;0.90;;;;;;;21.70;41.82;102948.84;4217401;28;20040;-71
2022/11/15 08:12:25;;;;;;;2.13;1.25;;;;;;;21.72;41.93;102935.53;4216407;28;20044;-71
2022/11/15 08:14:27;;;;;;;1.95;0.90;;;;;;;21.73;41.87;102931.66;4201357;28;20122;-71
2022/11/15 08:16:28;;;;;;;1.80;1.00;;;;;;;21.74;41.80;102926.94;4208424;28;20109;-71
2022/11/15 08:18:29;;;;;;;1.67;0.98;;;;;;;21.76;41.59;102935.88;4215625;28;20032;-71
2022/11/15 08:20:34;;;;;;;2.90;1.10;;;;;;;21.75;41.63;102926.69;4215538;28;20036;-71
2022/11/15 08:22:36;;;;;;;1.10;0.80;;;;;;;21.77;41.69;102921.75;4216217;28;20040;-71
2022/11/15 08:24:40;;;;;;;1.85;0.90;;;;;;;21.76;41.73;102925.63;4216396;28;20089;-71
2022/11/15 08:26:42;;;;;;;1.70;1.17;;;;;;;21.61;41.60;102902.91;4216111;28;20051;-71
2022/11/15 08:28:43;;;;;;;2.67;0.93;;;;;;;21.78;41.59;102928.16;4214648;28;20044;-71
2022/11/15 08:30:45;;;;;;;1.67;0.82;;;;;;;21.74;41.60;102926.94;4215450;28;20425;-71
2022/11/15 08:32:50;;;;;;;0.85;0.60;;;;;;;21.77;41.50;102934.81;4217276;28;20061;-71
2022/11/15 08:34:55;;;;;;;1.80;0.90;;;;;;;21.80;41.39;102932.38;4216395;28;20040;-71
2022/11/15 08:36:59;;;;;;;1.43;0.90;;;;;;;21.80;41.30;102946.31;4216348;28;20102;-71
2022/11/15 08:39:00;;;;;;;1.15;1.02;;;;;;;21.76;41.18;102942.34;4216142;28;20846;-71
2022/11/15 08:41:05;;;;;;;1.42;1.02;;;;;;;21.80;41.13;102949.09;4215886;28;20081;-71
2022/11/15 08:43:07;;;;;;;;;;;;;;;21.80;41.40;102948.25;4203254;28;20081;-71
2022/11/15 08:45:09;;;;;;;1.15;0.85;;;;;;;21.82;41.25;102934.97;4217275;28;19912;-71
2022/11/15 08:47:12;;;;;;;1.63;1.27;;;;;;;21.85;41.40;102940.03;4215945;28;20040;-71
2022/11/15 08:49:13;;;;;;;1.58;0.80;;;;;;;21.83;41.18;102931.91;4217065;28;20043;-71
2022/11/15 08:51:15;;;;;;;1.30;0.90;;;;;;;21.63;41.23;102895.19;4217256;28;20040;-71
2022/11/15 08:53:18;;;;;;;1.80;0.90;;;;;;;21.79;41.32;102925.13;4216240;28;20078;-72
2022/11/15 08:55:20;;;;;;;2.50;0.85;;;;;;;21.73;41.27;102917.72;4213844;28;20036;-71
2022/11/15 08:57:21;;;;;;;1.52;0.90;;;;;;;21.76;41.47;102942.34;4215855;28;20077;-71
2022/11/15 08:59:22;;;;;;;1.45;1.00;;;;;;;21.56;41.30;102930.63;4217020;28;20095;-71
2022/11/15 09:01:24;;;;;;;1.77;0.90;;;;;;;21.69;41.33;102968.59;4213612;28;20036;-71
2022/11/15 09:03:25;;;;;;;1.08;0.80;;;;;;;21.65;41.05;102973.78;4214919;28;20036;-71
2022/11/15 09:05:32;;;;;;;1.83;1.00;;;;;;;21.73;41.22;102998.53;4216041;28;20085;-71
2022/11/15 09:07:33;;;;;;;1.65;0.90;;;;;;;21.74;41.37;102996.59;4215391;28;20565;-71
2022/11/15 09:09:35;;;;;;;1.65;0.80;;;;;;;21.74;40.98;103000.22;4212502;28;20040;-71
2022/11/15 09:11:36;;;;;;;1.15;0.80;;;;;;;21.55;41.37;102981.88;4216674;28;20335;-71
2022/11/15 09:13:38;;;;;;;1.13;0.80;;;;;;;21.72;41.04;103012.72;4217106;28;20070;-71
2022/11/15 09:15:39;;;;;;;1.05;0.90;;;;;;;21.72;40.97;103019.13;4216327;28;20032;-71
2022/11/15 09:17:44;;;;;;;0.90;0.75;;;;;;;21.70;41.13;103024.09;4217204;28;20044;-71
2022/11/15 09:19:45;;;;;;;1.00;0.68;;;;;;;21.69;41.10;103014.03;4216080;28;20039;-71
2022/11/15 09:21:47;;;;;;;1.52;0.80;;;;;;;21.68;41.18;103006.75;4215009;28;20040;-71
2022/11/15 09:23:52;;;;;;;1.27;0.80;;;;;;;21.57;41.21;102993.63;4215987;28;20027;-71
2022/11/15 09:26:09;;;;;;;0.57;0.57;;;;;;;21.67;40.87;103020.91;4215037;28;20047;-71
2022/11/15 09:28:10;;;;;;;0.90;0.80;;;;;;;21.67;41.01;103029.28;4213711;28;20036;-71
2022/11/15 09:30:12;;;;;;;1.00;0.80;;;;;;;21.68;41.01;103031.84;4215536;28;20039;-71
2022/11/15 09:32:13;;;;;;;1.38;0.85;;;;;;;21.69;40.93;103029.91;4214603;28;20400;-71
2022/11/15 09:34:15;;;;;;;0.98;0.77;;;;;;;21.60;41.07;103014.59;4216430;28;20475;-71
2022/11/15 09:36:18;;;;;;;2.03;1.00;;;;;;;21.59;41.24;103019.31;4215030;28;20487;-71
2022/11/15 09:38:20;;;;;;;0.80;0.80;;;;;;;21.68;41.07;103033.78;4215931;28;20109;-71
2022/11/15 09:40:22;;;;;;;1.23;0.80;;;;;;;21.67;40.88;103032.94;4215236;28;20044;-71
2022/11/15 09:42:44;;;;;;;1.08;0.90;;;;;;;21.60;40.92;103018.22;4216628;28;20039;-71
2022/11/15 09:44:57;;;;;;;1.00;0.90;;;;;;;21.65;40.89;103012.81;4216608;28;20478;-72
2022/11/15 09:47:28;;;;;;;1.08;0.77;;;;;;;21.63;40.91;103003.00;4199284;28;20094;-71
2022/11/15 09:49:31;;;;;;;0.75;0.75;;;;;;;21.63;40.91;103006.63;4211950;28;20048;-72
2022/11/15 09:51:47;;;;;;;0.80;0.80;;;;;;;21.62;40.89;103029.13;4216099;28;20039;-71
2022/11/15 09:54:00;;;;;;;1.15;0.85;;;;;;;21.42;40.93;103009.91;4218708;28;20081;-71
2022/11/15 09:56:05;;;;;;;0.80;0.70;;;;;;;21.64;40.84;103038.97;4216166;28;20036;-71
2022/11/15 09:58:25;;;;;;;;;;;;;;;21.61;40.98;103045.00;4217185;28;20036;-72